Time;durP1;ratioP1;P1;durP2;ratioP2;P2;SDS_P1;SDS_P2;PMS_P1;PMS_P2;Temp;Humidity;BMP_temperature;BMP_pressure;BME280_temperature;BME280_humidity;BME280_pressure;Samples;Min_cycle;Max_cycle;Signal;HPM_P1;HPM_P2
2022/04/22 00:00:23;;;;;;;;;;;25.70;38.70;;;;;;5096772;28;912;-46
2022/04/22 00:02:50;;;;;;;;;;;25.80;38.70;;;;;;5094775;28;1181;-43
2022/04/22 00:05:17;;;;;;;;;;;25.70;38.70;;;;;;5095144;28;984;-44
2022/04/22 00:07:44;;;;;;;;;;;25.60;38.70;;;;;;5095653;28;1021;-47
2022/04/22 00:10:11;;;;;;;;;;;25.70;38.60;;;;;;5095068;28;889;-46
2022/04/22 00:12:38;;;;;;;;;;;25.70;38.70;;;;;;5095726;28;1981;-44
2022/04/22 00:15:06;;;;;;;;;;;25.60;38.80;;;;;;5096547;28;1000;-44
2022/04/22 00:17:34;;;;;;;;;;;25.60;38.80;;;;;;5096369;28;1015;-45
2022/04/22 00:20:00;;;;;;;;;;;25.60;38.80;;;;;;5096178;28;877;-46
2022/04/22 00:22:27;;;;;;;;;;;25.60;38.80;;;;;;5094880;28;924;-45
2022/04/22 00:24:54;;;;;;;;;;;25.60;38.80;;;;;;5095540;28;1012;-46
2022/04/22 00:27:21;;;;;;;;;;;25.60;38.80;;;;;;5096079;28;937;-45
2022/04/22 00:29:48;;;;;;;;;;;25.60;38.90;;;;;;5095582;28;999;-44
2022/04/22 00:32:15;;;;;;;;;;;25.60;38.80;;;;;;5096293;28;1977;-45
2022/04/22 00:34:43;;;;;;;;;;;25.60;38.90;;;;;;5096412;28;1059;-44
2022/04/22 00:37:09;;;;;;;;;;;25.60;38.90;;;;;;5095878;28;973;-46
2022/04/22 00:39:36;;;;;;;;;;;25.60;38.90;;;;;;5096569;28;1103;-46
2022/04/22 00:42:10;;;;;;;;;;;25.60;39.00;;;;;;5095869;28;999;-45
2022/04/22 00:44:37;;;;;;;;;;;25.60;38.90;;;;;;5095690;28;984;-45
2022/04/22 00:47:04;;;;;;;;;;;25.60;38.80;;;;;;5096198;28;1111;-44
2022/04/22 00:49:30;;;;;;;;;;;25.60;38.90;;;;;;5096051;28;1068;-45
2022/04/22 00:51:58;;;;;;;;;;;25.60;38.90;;;;;;5095440;28;1984;-46
2022/04/22 00:54:26;;;;;;;;;;;25.50;38.80;;;;;;5096277;28;1000;-45
2022/04/22 00:56:53;;;;;;;;;;;25.60;39.00;;;;;;5095662;28;935;-45
2022/04/22 00:59:20;;;;;;;;;;;25.50;39.00;;;;;;5096158;28;973;-44
2022/04/22 01:01:47;;;;;;;;;;;25.50;39.00;;;;;;5094650;28;885;-44
2022/04/22 01:09:50;;;;;;;;;;;25.50;39.00;;;;;;5095254;28;652;-43
2022/04/22 01:12:17;;;;;;;;;;;25.50;38.90;;;;;;5094506;28;1906;-43
2022/04/22 01:14:44;;;;;;;;;;;25.50;38.90;;;;;;5095346;28;1020;-43
2022/04/22 01:17:11;;;;;;;;;;;25.50;39.00;;;;;;5094113;28;1120;-44
2022/04/22 01:19:38;;;;;;;;;;;25.50;38.90;;;;;;5095391;28;960;-45
2022/04/22 01:22:07;;;;;;;;;;;25.50;38.90;;;;;;5095044;28;1141;-43
2022/04/22 01:24:34;;;;;;;;;;;25.40;38.80;;;;;;5095390;28;1031;-45
2022/04/22 01:27:01;;;;;;;;;;;25.50;39.00;;;;;;5096259;28;925;-43
2022/04/22 01:29:28;;;;;;;;;;;25.40;38.90;;;;;;5095186;28;920;-45
2022/04/22 01:31:55;;;;;;;;;;;25.40;38.90;;;;;;5094486;28;1905;-44
2022/04/22 01:34:21;;;;;;;;;;;25.40;38.90;;;;;;5095727;28;1016;-43
2022/04/22 01:36:48;;;;;;;;;;;25.40;38.90;;;;;;5095414;28;988;-45
2022/04/22 01:39:16;;;;;;;;;;;25.40;38.90;;;;;;5095069;28;1098;-44
2022/04/22 01:41:43;;;;;;;;;;;25.40;38.90;;;;;;5095458;28;1023;-46
2022/04/22 01:44:10;;;;;;;;;;;25.40;38.90;;;;;;5094353;28;983;-46
2022/04/22 01:46:37;;;;;;;;;;;25.40;38.90;;;;;;5095186;28;1008;-43
2022/04/22 01:49:03;;;;;;;;;;;25.40;38.90;;;;;;5094894;28;879;-45
2022/04/22 01:51:30;;;;;;;;;;;25.40;38.90;;;;;;5095769;28;952;-46
2022/04/22 01:53:57;;;;;;;;;;;25.40;38.90;;;;;;5096208;28;1913;-45
2022/04/22 01:56:25;;;;;;;;;;;25.40;38.90;;;;;;5093496;28;932;-44
2022/04/22 01:58:52;;;;;;;;;;;25.30;38.90;;;;;;5094523;28;964;-43
2022/04/22 02:01:19;;;;;;;;;;;25.40;38.90;;;;;;5095667;28;945;-44
2022/04/22 02:03:46;;;;;;;;;;;25.40;38.90;;;;;;5094274;28;979;-45
2022/04/22 02:06:12;;;;;;;;;;;25.30;38.90;;;;;;5094973;28;1019;-45
2022/04/22 02:08:39;;;;;;;;;;;25.40;38.90;;;;;;5094642;28;995;-47
2022/04/22 02:14:20;;;;;;;;;;;25.40;38.90;;;;;;5094382;28;689;-43
2022/04/22 02:16:47;;;;;;;;;;;25.40;38.90;;;;;;5094614;28;973;-44
2022/04/22 02:19:14;;;;;;;;;;;25.40;38.80;;;;;;5095898;28;892;-45
2022/04/22 02:21:41;;;;;;;;;;;25.40;38.80;;;;;;5095169;28;943;-44
2022/04/22 02:24:08;;;;;;;;;;;25.40;38.70;;;;;;5094097;28;928;-43
2022/04/22 02:28:31;;;;;;;;;;;25.40;38.90;;;;;;5094902;28;920;-45
2022/04/22 02:29:22;;;;;;;;;;;25.40;38.90;;;;;;5096019;28;767;-46
2022/04/22 02:31:52;;;;;;;;;;;25.40;38.90;;;;;;5095233;28;1044;-45
2022/04/22 02:34:20;;;;;;;;;;;25.40;38.80;;;;;;5095391;28;1902;-44
2022/04/22 02:36:46;;;;;;;;;;;25.30;38.80;;;;;;5094701;28;1000;-43
2022/04/22 02:39:13;;;;;;;;;;;25.30;38.80;;;;;;5094707;28;1229;-45
2022/04/22 02:47:09;;;;;;;;;;;25.30;38.80;;;;;;5098555;28;920;-43
2022/04/22 02:49:36;;;;;;;;;;;25.40;38.90;;;;;;5098538;28;849;-45
2022/04/22 02:52:02;;;;;;;;;;;25.30;38.80;;;;;;5098675;28;1906;-45
2022/04/22 02:54:30;;;;;;;;;;;25.30;38.80;;;;;;5098034;28;940;-44
2022/04/22 02:56:58;;;;;;;;;;;25.30;38.90;;;;;;5099963;28;1231;-44
2022/04/22 02:59:26;;;;;;;;;;;25.20;38.80;;;;;;5099151;28;1126;-44
2022/04/22 03:01:54;;;;;;;;;;;25.30;38.80;;;;;;5098444;28;959;-45
2022/04/22 03:04:21;;;;;;;;;;;25.30;38.80;;;;;;5095983;28;928;-45
2022/04/22 03:06:47;;;;;;;;;;;25.30;38.80;;;;;;5096652;28;992;-45
2022/04/22 03:09:14;;;;;;;;;;;25.30;38.60;;;;;;5098537;28;999;-43
2022/04/22 03:11:41;;;;;;;;;;;25.30;38.80;;;;;;5097231;28;952;-44
2022/04/22 03:14:08;;;;;;;;;;;25.20;38.80;;;;;;5097263;28;1986;-45
2022/04/22 03:16:36;;;;;;;;;;;25.20;38.70;;;;;;5097313;28;956;-44
2022/04/22 03:19:03;;;;;;;;;;;25.20;38.80;;;;;;5097634;28;806;-45
2022/04/22 03:21:29;;;;;;;;;;;25.20;40.00;;;;;;5097224;28;997;-45
2022/04/22 03:23:57;;;;;;;;;;;25.30;38.70;;;;;;5098154;28;944;-44
2022/04/22 03:26:24;;;;;;;;;;;25.30;38.60;;;;;;5097430;28;1384;-46
2022/04/22 03:28:52;;;;;;;;;;;25.40;38.80;;;;;;5097195;28;948;-45
2022/04/22 03:31:19;;;;;;;;;;;25.30;38.80;;;;;;5097038;28;1012;-46
2022/04/22 03:33:47;;;;;;;;;;;25.20;38.70;;;;;;5098167;28;1909;-44
2022/04/22 03:36:14;;;;;;;;;;;25.30;38.90;;;;;;5097476;28;1016;-45
2022/04/22 03:38:43;;;;;;;;;;;25.20;38.90;;;;;;5096695;28;1024;-46
2022/04/22 03:41:10;;;;;;;;;;;25.20;38.90;;;;;;5096377;28;1012;-43
2022/04/22 03:43:37;;;;;;;;;;;25.20;38.80;;;;;;5095345;28;1520;-45
2022/04/22 03:46:04;;;;;;;;;;;25.30;39.00;;;;;;5097263;28;975;-45
2022/04/22 03:48:30;;;;;;;;;;;25.20;39.00;;;;;;5096356;28;877;-45
2022/04/22 03:50:58;;;;;;;;;;;25.20;38.80;;;;;;5095490;28;1000;-45
2022/04/22 03:53:25;;;;;;;;;;;25.30;38.80;;;;;;5095878;28;1909;-44
2022/04/22 03:55:52;;;;;;;;;;;25.30;38.90;;;;;;5096174;28;1085;-46
2022/04/22 03:58:18;;;;;;;;;;;25.30;39.00;;;;;;5095830;28;932;-44
2022/04/22 04:00:46;;;;;;;;;;;25.20;39.00;;;;;;5095492;28;990;-45
2022/04/22 04:03:14;;;;;;;;;;;25.20;38.90;;;;;;5094757;28;1027;-44
2022/04/22 04:05:44;;;;;;;;;;;25.20;39.00;;;;;;5096257;28;1007;-43
2022/04/22 04:08:12;;;;;;;;;;;25.20;39.00;;;;;;5095924;28;885;-43
2022/04/22 04:16:07;;;;;;;;;;;25.20;39.10;;;;;;5094882;28;1014;-44
2022/04/22 04:18:35;;;;;;;;;;;25.20;39.00;;;;;;5094319;28;949;-43
2022/04/22 04:23:48;;;;;;;;;;;25.20;38.90;;;;;;5094928;28;641;-44
2022/04/22 04:26:16;;;;;;;;;;;25.20;39.00;;;;;;5095204;28;993;-45
2022/04/22 04:28:43;;;;;;;;;;;25.20;39.00;;;;;;5095292;28;957;-45
2022/04/22 04:31:11;;;;;;;;;;;25.20;39.00;;;;;;5094292;28;891;-43
2022/04/22 04:33:38;;;;;;;;;;;25.20;39.10;;;;;;5094557;28;1894;-44
2022/04/22 04:36:05;;;;;;;;;;;25.20;39.10;;;;;;5094521;28;1008;-43
2022/04/22 04:38:32;;;;;;;;;;;25.20;39.20;;;;;;5094004;28;988;-45
2022/04/22 04:41:01;;;;;;;;;;;25.20;39.10;;;;;;5094324;28;1106;-42
2022/04/22 04:43:27;;;;;;;;;;;25.20;39.00;;;;;;5094461;28;980;-44
2022/04/22 04:45:54;;;;;;;;;;;25.20;39.10;;;;;;5094236;28;988;-45
2022/04/22 04:48:21;;;;;;;;;;;25.20;39.00;;;;;;5094781;28;929;-45
2022/04/22 04:50:49;;;;;;;;;;;25.20;39.00;;;;;;5094416;28;963;-45
2022/04/22 04:53:17;;;;;;;;;;;25.20;39.00;;;;;;5095138;28;1902;-45
2022/04/22 04:55:44;;;;;;;;;;;25.20;39.10;;;;;;5093847;28;997;-45
2022/04/22 04:58:12;;;;;;;;;;;25.20;39.00;;;;;;5093858;28;924;-45
2022/04/22 05:00:39;;;;;;;;;;;25.20;39.10;;;;;;5092931;28;1004;-44
2022/04/22 05:03:06;;;;;;;;;;;25.20;39.10;;;;;;5084690;28;858;-44
2022/04/22 05:05:33;;;;;;;;;;;25.20;39.10;;;;;;5085967;28;1012;-43
2022/04/22 05:08:00;;;;;;;;;;;25.20;39.10;;;;;;5091801;28;925;-44
2022/04/22 05:10:28;;;;;;;;;;;25.10;39.10;;;;;;5092434;28;882;-43
2022/04/22 05:12:54;;;;;;;;;;;25.20;39.20;;;;;;5091539;28;1984;-44
2022/04/22 05:15:23;;;;;;;;;;;25.20;39.20;;;;;;5091591;28;929;-43
2022/04/22 05:17:50;;;;;;;;;;;25.10;39.20;;;;;;5092264;28;1122;-44
2022/04/22 05:20:18;;;;;;;;;;;25.20;39.20;;;;;;5093532;28;889;-45
2022/04/22 05:22:45;;;;;;;;;;;25.20;39.20;;;;;;5093566;28;1050;-43
2022/04/22 05:25:13;;;;;;;;;;;25.20;39.20;;;;;;5093435;28;1032;-43
2022/04/22 05:27:40;;;;;;;;;;;25.10;39.20;;;;;;5093526;28;1001;-44
2022/04/22 05:32:53;;;;;;;;;;;25.20;39.20;;;;;;5093446;28;1909;-43
2022/04/22 05:35:21;;;;;;;;;;;25.10;39.20;;;;;;5092383;28;1007;-40
2022/04/22 05:37:49;;;;;;;;;;;25.20;39.20;;;;;;5093281;28;1123;-41
2022/04/22 05:40:16;;;;;;;;;;;25.20;39.30;;;;;;5091610;28;1089;-41
2022/04/22 05:42:43;;;;;;;;;;;25.20;39.30;;;;;;5090149;28;1001;-42
2022/04/22 05:45:11;;;;;;;;;;;25.10;39.20;;;;;;5091626;28;964;-41
2022/04/22 05:47:38;;;;;;;;;;;25.10;39.20;;;;;;5092782;28;948;-41
2022/04/22 05:50:07;;;;;;;;;;;25.20;39.30;;;;;;5089229;28;995;-42
2022/04/22 05:52:34;;;;;;;;;;;25.20;39.20;;;;;;5086304;28;998;-42
2022/04/22 05:55:02;;;;;;;;;;;25.20;39.30;;;;;;5090332;28;1984;-40
2022/04/22 05:57:30;;;;;;;;;;;25.20;39.40;;;;;;5091743;28;1043;-42
2022/04/22 05:59:57;;;;;;;;;;;25.20;39.50;;;;;;5093670;28;976;-43
2022/04/22 06:02:23;;;;;;;;;;;25.20;39.50;;;;;;5091227;28;1000;-43
2022/04/22 06:04:50;;;;;;;;;;;25.20;39.40;;;;;;5092467;28;912;-42
2022/04/22 06:07:18;;;;;;;;;;;25.20;39.50;;;;;;5092931;28;992;-42
2022/04/22 06:12:30;;;;;;;;;;;25.20;39.50;;;;;;5094140;28;892;-40
2022/04/22 06:14:59;;;;;;;;;;;25.20;39.50;;;;;;5092391;28;1902;-41
2022/04/22 06:17:26;;;;;;;;;;;25.20;39.50;;;;;;5094284;28;1407;-42
2022/04/22 06:19:53;;;;;;;;;;;25.20;39.50;;;;;;5095196;28;1023;-43
2022/04/22 06:22:21;;;;;;;;;;;25.20;39.30;;;;;;5093472;28;999;-41
2022/04/22 06:24:48;;;;;;;;;;;25.20;39.40;;;;;;5093927;28;933;-39
2022/04/22 06:27:22;;;;;;;;;;;25.20;39.60;;;;;;5092910;28;956;-37
2022/04/22 06:29:49;;;;;;;;;;;25.30;39.70;;;;;;5095104;28;980;-37
2022/04/22 06:32:16;;;;;;;;;;;25.20;39.70;;;;;;5093250;28;950;-37
2022/04/22 06:34:43;;;;;;;;;;;25.30;39.90;;;;;;5094068;28;1992;-34
2022/04/22 06:37:11;;;;;;;;;;;25.20;39.80;;;;;;5093089;28;876;-35
2022/04/22 06:47:52;;;;;;;;;;;25.20;39.80;;;;;;5066669;28;1076;-37
2022/04/22 06:50:19;;;;;;;;;;;25.20;39.80;;;;;;5092002;28;814;-37
2022/04/22 06:52:46;;;;;;;;;;;25.20;39.90;;;;;;5092636;28;987;-38
2022/04/22 06:55:15;;;;;;;;;;;25.20;39.80;;;;;;5093312;28;1902;-38
2022/04/22 06:57:46;;;;;;;;;;;25.20;39.90;;;;;;5091827;28;993;-37
2022/04/22 07:00:13;;;;;;;;;;;25.20;39.90;;;;;;5091489;28;948;-37
2022/04/22 07:02:40;;;;;;;;;;;25.20;39.90;;;;;;5091462;28;1015;-36
2022/04/22 07:05:07;;;;;;;;;;;25.20;39.90;;;;;;5091307;28;892;-37
2022/04/22 07:07:34;;;;;;;;;;;25.20;40.00;;;;;;5091686;28;1778;-37
2022/04/22 07:10:02;;;;;;;;;;;25.20;39.90;;;;;;5091212;28;915;-38
2022/04/22 07:12:32;;;;;;;;;;;25.20;39.90;;;;;;5091611;28;996;-37
2022/04/22 07:15:03;;;;;;;;;;;25.20;39.90;;;;;;5091910;28;1901;-36
2022/04/22 07:17:30;;;;;;;;;;;25.20;39.90;;;;;;5085541;28;949;-37
2022/04/22 07:19:57;;;;;;;;;;;25.20;39.90;;;;;;5081056;28;1017;-37
2022/04/22 07:22:24;;;;;;;;;;;25.20;39.80;;;;;;5083457;28;937;-37
2022/04/22 07:24:51;;;;;;;;;;;25.20;39.90;;;;;;5091710;28;928;-36
2022/04/22 07:27:19;;;;;;;;;;;25.20;39.90;;;;;;5090393;28;1018;-38
2022/04/22 07:29:48;;;;;;;;;;;25.20;39.90;;;;;;5092247;28;993;-37
2022/04/22 07:32:16;;;;;;;;;;;25.20;40.00;;;;;;5092076;28;1006;-37
2022/04/22 07:34:43;;;;;;;;;;;25.20;40.00;;;;;;5091587;28;1902;-38
2022/04/22 07:37:10;;;;;;;;;;;25.20;40.00;;;;;;5091227;28;1019;-35
2022/04/22 07:39:38;;;;;;;;;;;25.20;40.00;;;;;;5091791;28;1082;-37
2022/04/22 07:42:07;;;;;;;;;;;25.20;40.00;;;;;;5092854;28;1036;-38
2022/04/22 07:47:20;;;;;;;;;;;25.20;40.00;;;;;;5090597;28;888;-35
2022/04/22 07:49:47;;;;;;;;;;;25.20;40.00;;;;;;5090772;28;879;-36
2022/04/22 07:52:14;;;;;;;;;;;25.20;39.90;;;;;;5089804;28;973;-38
2022/04/22 07:54:41;;;;;;;;;;;25.20;40.00;;;;;;5092160;28;1914;-37
2022/04/22 07:57:08;;;;;;;;;;;25.20;40.00;;;;;;5089699;28;900;-37
2022/04/22 07:59:34;;;;;;;;;;;25.20;40.10;;;;;;5090029;28;956;-37
2022/04/22 08:02:02;;;;;;;;;;;25.20;40.00;;;;;;5089372;28;1040;-37
2022/04/22 08:04:30;;;;;;;;;;;25.20;40.00;;;;;;5087163;28;995;-36
2022/04/22 08:06:57;;;;;;;;;;;25.20;40.00;;;;;;5089010;28;986;-36
2022/04/22 08:09:23;;;;;;;;;;;25.20;39.90;;;;;;5088693;28;857;-37
2022/04/22 08:11:50;;;;;;;;;;;25.30;40.10;;;;;;5088803;28;947;-39
2022/04/22 08:14:17;;;;;;;;;;;25.20;40.00;;;;;;5088289;28;1906;-36
2022/04/22 08:16:44;;;;;;;;;;;25.20;40.20;;;;;;5088735;28;996;-36
2022/04/22 08:19:11;;;;;;;;;;;25.20;40.10;;;;;;5088499;28;826;-36
2022/04/22 08:21:39;;;;;;;;;;;25.30;40.10;;;;;;5087699;28;999;-37
2022/04/22 08:24:10;;;;;;;;;;;25.20;40.00;;;;;;5087543;28;1004;-37
2022/04/22 08:26:37;;;;;;;;;;;25.20;40.10;;;;;;5088824;28;904;-36
2022/04/22 08:29:04;;;;;;;;;;;25.20;40.10;;;;;;5089453;28;952;-36
2022/04/22 08:31:30;;;;;;;;;;;25.20;40.20;;;;;;5078113;28;1026;-37
2022/04/22 08:33:57;;;;;;;;;;;25.30;40.30;;;;;;5072398;28;1983;-36
2022/04/22 08:36:24;;;;;;;;;;;25.20;40.10;;;;;;5078649;28;889;-35
2022/04/22 08:38:52;;;;;;;;;;;25.20;40.20;;;;;;5087184;28;1015;-35
2022/04/22 08:41:21;;;;;;;;;;;25.30;40.10;;;;;;5086917;28;1055;-35
2022/04/22 08:43:48;;;;;;;;;;;25.20;40.20;;;;;;5088100;28;956;-37
2022/04/22 08:51:41;;;;;;;;;;;25.20;40.40;;;;;;5087880;28;884;-37
2022/04/22 08:54:09;;;;;;;;;;;25.30;40.20;;;;;;5084708;28;1902;-37
2022/04/22 08:56:37;;;;;;;;;;;25.20;40.30;;;;;;5086750;28;1009;-35
2022/04/22 08:59:04;;;;;;;;;;;25.20;40.30;;;;;;5084419;28;1645;-37
2022/04/22 09:01:30;;;;;;;;;;;25.20;40.20;;;;;;5066617;28;1710;-37
2022/04/22 09:03:57;;;;;;;;;;;25.20;40.20;;;;;;5066265;28;929;-34
2022/04/22 09:06:25;;;;;;;;;;;25.20;40.20;;;;;;5066520;28;1187;-38
2022/04/22 09:08:52;;;;;;;;;;;25.20;40.30;;;;;;5065336;28;937;-37
2022/04/22 09:11:21;;;;;;;;;;;25.20;40.40;;;;;;5064188;28;946;-37
2022/04/22 09:13:47;;;;;;;;;;;25.20;40.40;;;;;;5064258;28;1062;-36
2022/04/22 09:16:19;;;;;;;;;;;25.20;40.30;;;;;;5067126;28;1975;-37
2022/04/22 09:18:46;;;;;;;;;;;25.20;40.30;;;;;;5062898;28;1056;-37
2022/04/22 09:21:16;;;;;;;;;;;25.30;40.30;;;;;;5066235;28;1466;-36
2022/04/22 09:23:45;;;;;;;;;;;25.20;40.30;;;;;;5067001;28;830;-37
2022/04/22 09:26:19;;;;;;;;;;;25.20;40.30;;;;;;5066464;28;924;-37
2022/04/22 09:28:57;;;;;;;;;;;25.20;40.40;;;;;;5066464;28;956;-36
2022/04/22 09:31:24;;;;;;;;;;;25.20;40.40;;;;;;5066110;28;995;-36
2022/04/22 09:33:52;;;;;;;;;;;25.20;40.40;;;;;;5067778;28;976;-38
2022/04/22 09:44:51;;;;;;;;;;;25.20;40.30;;;;;;5067787;28;620;-36
2022/04/22 09:47:19;;;;;;;;;;;25.20;40.70;;;;;;5065325;28;1535;-38
2022/04/22 09:49:46;;;;;;;;;;;25.30;40.30;;;;;;5066268;28;1414;-37
2022/04/22 09:52:13;;;;;;;;;;;25.30;40.20;;;;;;5062970;28;872;-37
2022/04/22 09:54:40;;;;;;;;;;;25.30;40.10;;;;;;5068434;28;1898;-37
2022/04/22 09:57:07;;;;;;;;;;;25.30;40.10;;;;;;5066611;28;984;-38
2022/04/22 09:59:35;;;;;;;;;;;25.30;40.00;;;;;;5066493;28;1039;-37
2022/04/22 10:02:04;;;;;;;;;;;25.30;40.10;;;;;;5059803;28;999;-35
2022/04/22 10:04:32;;;;;;;;;;;25.30;40.00;;;;;;5055096;28;964;-38
2022/04/22 10:07:00;;;;;;;;;;;25.30;40.10;;;;;;5065746;28;993;-38
2022/04/22 10:09:27;;;;;;;;;;;25.30;40.00;;;;;;5065888;28;936;-36
2022/04/22 10:11:57;;;;;;;;;;;25.30;40.00;;;;;;5067524;28;920;-37
2022/04/22 10:14:28;;;;;;;;;;;25.30;39.90;;;;;;5067718;28;1914;-37
2022/04/22 10:16:55;;;;;;;;;;;25.30;40.00;;;;;;5068210;28;897;-37
2022/04/22 10:19:23;;;;;;;;;;;25.30;40.00;;;;;;5068348;28;1442;-36
2022/04/22 10:21:50;;;;;;;;;;;25.30;39.90;;;;;;5069510;28;939;-47
2022/04/22 10:24:18;;;;;;;;;;;25.40;39.90;;;;;;5071703;28;1833;-47
2022/04/22 10:26:45;;;;;;;;;;;25.30;39.80;;;;;;5069919;28;1006;-47
2022/04/22 10:29:13;;;;;;;;;;;25.40;39.80;;;;;;5068561;28;1001;-48
2022/04/22 10:31:39;;;;;;;;;;;25.40;39.90;;;;;;5066145;28;945;-47
2022/04/22 10:34:07;;;;;;;;;;;25.30;39.80;;;;;;5066641;28;854;-48
2022/04/22 10:36:35;;;;;;;;;;;25.40;40.00;;;;;;5066814;28;1985;-47
2022/04/22 10:39:01;;;;;;;;;;;25.40;39.80;;;;;;5063602;28;1051;-47
2022/04/22 10:41:29;;;;;;;;;;;25.40;39.80;;;;;;5062905;28;982;-47
2022/04/22 10:49:36;;;;;;;;;;;25.40;39.80;;;;;;5064927;28;631;-48
2022/04/22 10:52:09;;;;;;;;;;;25.40;39.80;;;;;;5062926;28;944;-48
2022/04/22 10:54:55;;;;;;;;;;;25.30;39.80;;;;;;5065225;28;1975;-47
2022/04/22 10:57:23;;;;;;;;;;;25.40;39.80;;;;;;5063740;28;1026;-48
2022/04/22 11:00:04;;;;;;;;;;;25.40;39.70;;;;;;5065220;28;842;-48
2022/04/22 11:02:31;;;;;;;;;;;25.40;39.70;;;;;;5059150;28;1468;-48
2022/04/22 11:05:17;;;;;;;;;;;25.40;39.60;;;;;;5052979;28;928;-49
2022/04/22 11:07:56;;;;;;;;;;;25.40;39.70;;;;;;5051845;28;1062;-48
2022/04/22 11:10:23;;;;;;;;;;;25.40;39.70;;;;;;5047899;28;844;-48
2022/04/22 11:12:51;;;;;;;;;;;25.40;39.60;;;;;;5047477;28;953;-48
2022/04/22 11:15:33;;;;;;;;;;;25.50;39.70;;;;;;5048110;28;1975;-48
2022/04/22 11:17:59;;;;;;;;;;;25.50;39.70;;;;;;5050395;28;1583;-48
2022/04/22 11:20:26;;;;;;;;;;;25.50;39.70;;;;;;5049625;28;977;-48
2022/04/22 11:22:58;;;;;;;;;;;25.50;39.70;;;;;;5048924;28;1023;-48
2022/04/22 11:25:25;;;;;;;;;;;25.50;39.70;;;;;;5049292;28;886;-48
2022/04/22 11:27:54;;;;;;;;;;;25.50;39.70;;;;;;5047823;28;1008;-48
2022/04/22 11:30:22;;;;;;;;;;;25.50;39.70;;;;;;5048276;28;712;-48
2022/04/22 11:32:49;;;;;;;;;;;25.50;39.70;;;;;;5048644;28;1018;-49
2022/04/22 11:35:20;;;;;;;;;;;25.50;39.70;;;;;;5050198;28;1906;-48
2022/04/22 11:37:58;;;;;;;;;;;25.50;39.60;;;;;;5068012;28;1615;-49
2022/04/22 11:40:25;;;;;;;;;;;25.50;39.60;;;;;;5067127;28;1395;-48
2022/04/22 11:42:54;;;;;;;;;;;25.50;39.70;;;;;;5067162;28;1472;-48
2022/04/22 11:45:22;;;;;;;;;;;25.50;39.60;;;;;;5070619;28;1175;-47
2022/04/22 11:47:49;;;;;;;;;;;25.50;39.60;;;;;;5070979;28;1010;-48
2022/04/22 11:50:19;;;;;;;;;;;25.50;39.70;;;;;;5069630;28;1794;-48
2022/04/22 11:52:51;;;;;;;;;;;25.50;39.60;;;;;;5068629;28;1017;-49
2022/04/22 11:55:21;;;;;;;;;;;25.50;39.60;;;;;;5065164;28;1979;-48
2022/04/22 11:57:48;;;;;;;;;;;25.50;39.50;;;;;;5067398;28;880;-47
2022/04/22 12:05:52;;;;;;;;;;;25.50;39.50;;;;;;5073414;28;1003;-42
2022/04/22 12:08:19;;;;;;;;;;;25.60;39.70;;;;;;5069560;28;1022;-42
2022/04/22 12:10:48;;;;;;;;;;;25.50;39.70;;;;;;5069551;28;862;-41
2022/04/22 12:13:15;;;;;;;;;;;25.60;39.70;;;;;;5068830;28;873;-40
2022/04/22 12:15:46;;;;;;;;;;;25.60;39.70;;;;;;5069398;28;1882;-36
2022/04/22 12:18:27;;;;;;;;;;;25.50;39.70;;;;;;5067966;28;986;-37
2022/04/22 12:20:54;;;;;;;;;;;25.60;39.80;;;;;;5065827;28;1584;-41
2022/04/22 12:23:21;;;;;;;;;;;25.60;39.80;;;;;;5068912;28;1023;-41
2022/04/22 12:25:55;;;;;;;;;;;25.60;39.70;;;;;;5068616;28;1040;-40
2022/04/22 12:28:24;;;;;;;;;;;25.60;39.70;;;;;;5069622;28;888;-36
2022/04/22 12:30:50;;;;;;;;;;;25.60;39.70;;;;;;5070627;28;1124;-38
2022/04/22 12:33:18;;;;;;;;;;;25.60;39.70;;;;;;5071010;28;996;-36
2022/04/22 12:35:46;;;;;;;;;;;25.60;39.70;;;;;;5067945;28;1898;-38
2022/04/22 12:38:13;;;;;;;;;;;25.60;39.60;;;;;;5066787;28;1024;-36
2022/04/22 12:40:48;;;;;;;;;;;25.60;39.70;;;;;;5070570;28;1095;-35
2022/04/22 12:43:22;;;;;;;;;;;25.60;39.70;;;;;;5069592;28;1118;-40
2022/04/22 12:54:09;;;;;;;;;;;25.60;39.70;;;;;;5068352;28;718;-36
2022/04/22 12:56:36;;;;;;;;;;;25.60;39.80;;;;;;5067423;28;1906;-35
2022/04/22 12:59:06;;;;;;;;;;;25.60;39.80;;;;;;5068144;28;881;-40
2022/04/22 13:01:34;;;;;;;;;;;25.60;39.80;;;;;;5066112;28;924;-41
2022/04/22 13:04:01;;;;;;;;;;;25.60;39.90;;;;;;5066289;28;917;-37
2022/04/22 13:06:37;;;;;;;;;;;25.60;39.90;;;;;;5063998;28;999;-41
2022/04/22 13:09:04;;;;;;;;;;;25.60;39.80;;;;;;5064069;28;928;-41
2022/04/22 13:11:31;;;;;;;;;;;25.60;39.80;;;;;;5064721;28;943;-40
2022/04/22 13:13:58;;;;;;;;;;;25.70;39.70;;;;;;5066472;28;889;-43
2022/04/22 13:16:26;;;;;;;;;;;25.70;39.70;;;;;;5067246;28;1978;-41
2022/04/22 13:18:53;;;;;;;;;;;25.70;39.70;;;;;;5066198;28;853;-40
2022/04/22 13:21:20;;;;;;;;;;;25.70;39.60;;;;;;5065100;28;900;-41
2022/04/22 13:23:47;;;;;;;;;;;25.70;39.60;;;;;;5068053;28;846;-40
2022/04/22 13:26:13;;;;;;;;;;;25.70;39.60;;;;;;5066781;28;1069;-41
2022/04/22 13:28:40;;;;;;;;;;;25.70;39.60;;;;;;5066692;28;897;-40
2022/04/22 13:31:07;;;;;;;;;;;25.80;39.70;;;;;;5067254;28;932;-41
2022/04/22 13:33:35;;;;;;;;;;;25.80;39.70;;;;;;5067163;28;862;-41
2022/04/22 13:36:02;;;;;;;;;;;25.70;39.60;;;;;;5065411;28;1906;-40
2022/04/22 13:38:30;;;;;;;;;;;25.80;39.70;;;;;;5064332;28;1005;-40
2022/04/22 13:40:56;;;;;;;;;;;25.80;39.60;;;;;;5063770;28;1105;-41
2022/04/22 13:43:26;;;;;;;;;;;25.80;39.60;;;;;;5064130;28;995;-40
2022/04/22 13:54:06;;;;;;;;;;;25.80;39.60;;;;;;5066170;28;698;-41
2022/04/22 13:56:33;;;;;;;;;;;25.80;39.60;;;;;;5064478;28;1985;-41
2022/04/22 13:59:00;;;;;;;;;;;25.80;39.70;;;;;;5067311;28;936;-41
2022/04/22 14:01:27;;;;;;;;;;;25.80;39.70;;;;;;5064578;28;893;-36
2022/04/22 14:03:55;;;;;;;;;;;25.80;39.70;;;;;;5065694;28;969;-34
2022/04/22 14:06:22;;;;;;;;;;;25.80;39.80;;;;;;5066405;28;965;-36
2022/04/22 14:08:49;;;;;;;;;;;25.80;39.80;;;;;;5064803;28;857;-36
2022/04/22 14:11:16;;;;;;;;;;;25.80;39.70;;;;;;5066686;28;1070;-37
2022/04/22 14:13:43;;;;;;;;;;;25.90;39.80;;;;;;5063431;28;1004;-37
2022/04/22 14:16:10;;;;;;;;;;;25.90;39.80;;;;;;5063400;28;1917;-38
2022/04/22 14:18:37;;;;;;;;;;;25.90;39.70;;;;;;5064750;28;960;-38
2022/04/22 14:21:06;;;;;;;;;;;25.90;39.70;;;;;;5065663;28;1029;-38
2022/04/22 14:23:32;;;;;;;;;;;26.00;39.80;;;;;;5064176;28;997;-36
2022/04/22 14:25:59;;;;;;;;;;;25.90;39.70;;;;;;5063654;28;994;-35
2022/04/22 14:28:27;;;;;;;;;;;26.00;39.90;;;;;;5064031;28;991;-37
2022/04/22 14:30:55;;;;;;;;;;;26.00;39.80;;;;;;5063033;28;987;-36
2022/04/22 14:33:22;;;;;;;;;;;26.00;39.80;;;;;;5062428;28;919;-37
2022/04/22 14:35:49;;;;;;;;;;;26.00;39.80;;;;;;5064839;28;1891;-36
2022/04/22 14:38:17;;;;;;;;;;;26.00;39.80;;;;;;5069334;28;806;-35
2022/04/22 14:40:44;;;;;;;;;;;26.00;39.80;;;;;;5070331;28;1262;-38
2022/04/22 14:43:11;;;;;;;;;;;26.10;39.90;;;;;;5069146;28;1005;-35
2022/04/22 14:45:38;;;;;;;;;;;26.00;39.80;;;;;;5070636;28;900;-37
2022/04/22 14:48:05;;;;;;;;;;;26.00;39.80;;;;;;5068844;28;935;-38
2022/04/22 14:50:32;;;;;;;;;;;26.00;39.80;;;;;;5066270;28;1008;-36
2022/04/22 14:52:59;;;;;;;;;;;26.00;39.90;;;;;;5069195;28;995;-36
2022/04/22 14:55:27;;;;;;;;;;;26.00;39.90;;;;;;5071938;28;860;-37
2022/04/22 14:57:53;;;;;;;;;;;26.00;39.90;;;;;;5071471;28;1913;-35
2022/04/22 15:00:20;;;;;;;;;;;26.00;39.90;;;;;;5071997;28;1037;-37
2022/04/22 15:02:47;;;;;;;;;;;26.00;39.90;;;;;;5070746;28;1010;-36
2022/04/22 15:05:14;;;;;;;;;;;26.00;39.80;;;;;;5069777;28;1000;-38
2022/04/22 15:07:41;;;;;;;;;;;26.10;39.90;;;;;;5070606;28;1041;-35
2022/04/22 15:10:08;;;;;;;;;;;26.10;39.90;;;;;;5069585;28;963;-37
2022/04/22 15:12:36;;;;;;;;;;;26.10;39.90;;;;;;5070604;28;1009;-36
2022/04/22 15:15:03;;;;;;;;;;;26.00;39.90;;;;;;5069724;28;1006;-38
2022/04/22 15:25:42;;;;;;;;;;;26.10;39.90;;;;;;5070205;28;908;-38
2022/04/22 15:28:10;;;;;;;;;;;26.10;39.90;;;;;;5070459;28;842;-37
2022/04/22 15:30:58;;;;;;;;;;;26.10;39.90;;;;;;5070326;28;980;-36
2022/04/22 15:33:25;;;;;;;;;;;26.20;40.00;;;;;;5065559;28;1429;-38
2022/04/22 15:35:51;;;;;;;;;;;26.10;40.00;;;;;;5068710;28;1906;-38
2022/04/22 15:38:19;;;;;;;;;;;26.10;39.90;;;;;;5068858;28;945;-38
2022/04/22 15:40:46;;;;;;;;;;;26.20;39.90;;;;;;5068653;28;1042;-37
2022/04/22 15:43:14;;;;;;;;;;;26.10;40.00;;;;;;5067674;28;984;-37
2022/04/22 15:45:41;;;;;;;;;;;26.10;39.90;;;;;;5070877;28;1022;-37
2022/04/22 15:48:08;;;;;;;;;;;26.10;39.90;;;;;;5071510;28;1286;-38
2022/04/22 15:50:34;;;;;;;;;;;26.10;39.90;;;;;;5070143;28;940;-37
2022/04/22 15:53:01;;;;;;;;;;;26.10;39.90;;;;;;5070024;28;837;-38
2022/04/22 15:55:28;;;;;;;;;;;26.10;39.90;;;;;;5073425;28;865;-37
2022/04/22 15:57:55;;;;;;;;;;;26.10;39.80;;;;;;5072318;28;1886;-38
2022/04/22 16:00:23;;;;;;;;;;;26.10;39.80;;;;;;5068794;28;1082;-38
2022/04/22 16:02:50;;;;;;;;;;;26.10;39.90;;;;;;5066690;28;953;-35
2022/04/22 16:05:17;;;;;;;;;;;26.10;39.80;;;;;;5067123;28;913;-38
2022/04/22 16:07:44;;;;;;;;;;;26.20;39.90;;;;;;5068533;28;931;-36